sensor_id;sensor_type;location;lat;lon;timestamp;temperature;humidity
7384;DHT22;3733;47.994;8.820;2022-12-07T00:01:20;2.60;99.90
7384;DHT22;3733;47.994;8.820;2022-12-07T00:03:48;2.60;99.90
7384;DHT22;3733;47.994;8.820;2022-12-07T00:06:15;2.60;99.90
7384;DHT22;3733;47.994;8.820;2022-12-07T00:08:42;2.60;99.90
7384;DHT22;3733;47.994;8.820;2022-12-07T00:11:10;2.60;99.90
7384;DHT22;3733;47.994;8.820;2022-12-07T00:13:36;2.60;99.90
7384;DHT22;3733;47.994;8.820;2022-12-07T00:16:17;2.60;99.90
7384;DHT22;3733;47.994;8.820;2022-12-07T00:18:44;2.60;99.90
7384;DHT22;3733;47.994;8.820;2022-12-07T00:23:38;2.60;99.90
7384;DHT22;3733;47.994;8.820;2022-12-07T00:26:10;2.60;99.90
7384;DHT22;3733;47.994;8.820;2022-12-07T00:28:36;2.60;99.90
7384;DHT22;3733;47.994;8.820;2022-12-07T00:31:10;2.50;99.90
7384;DHT22;3733;47.994;8.820;2022-12-07T00:33:36;2.60;99.90
7384;DHT22;3733;47.994;8.820;2022-12-07T00:36:06;2.50;99.90
7384;DHT22;3733;47.994;8.820;2022-12-07T00:38:34;2.60;99.90
7384;DHT22;3733;47.994;8.820;2022-12-07T00:41:03;2.60;99.90
7384;DHT22;3733;47.994;8.820;2022-12-07T00:43:29;2.50;99.90
7384;DHT22;3733;47.994;8.820;2022-12-07T00:45:56;2.60;99.90
7384;DHT22;3733;47.994;8.820;2022-12-07T00:48:22;2.50;99.90
7384;DHT22;3733;47.994;8.820;2022-12-07T00:50:48;2.60;99.90
7384;DHT22;3733;47.994;8.820;2022-12-07T00:53:14;2.60;99.90
7384;DHT22;3733;47.994;8.820;2022-12-07T00:55:40;2.60;99.90
7384;DHT22;3733;47.994;8.820;2022-12-07T00:58:06;2.60;99.90
7384;DHT22;3733;47.994;8.820;2022-12-07T01:00:32;2.60;99.90
7384;DHT22;3733;47.994;8.820;2022-12-07T01:02:59;2.70;99.90
7384;DHT22;3733;47.994;8.820;2022-12-07T01:05:24;2.70;99.90
7384;DHT22;3733;47.994;8.820;2022-12-07T01:07:50;2.70;99.90
7384;DHT22;3733;47.994;8.820;2022-12-07T01:10:16;2.70;99.90
7384;DHT22;3733;47.994;8.820;2022-12-07T01:12:41;2.70;99.90
7384;DHT22;3733;47.994;8.820;2022-12-07T01:15:07;2.70;99.90
7384;DHT22;3733;47.994;8.820;2022-12-07T01:17:34;2.70;99.90
7384;DHT22;3733;47.994;8.820;2022-12-07T01:20:00;2.60;99.90
7384;DHT22;3733;47.994;8.820;2022-12-07T01:22:26;2.60;99.90
7384;DHT22;3733;47.994;8.820;2022-12-07T01:24:51;2.60;99.90
7384;DHT22;3733;47.994;8.820;2022-12-07T01:27:17;2.60;99.90
7384;DHT22;3733;47.994;8.820;2022-12-07T01:29:43;2.70;99.90
7384;DHT22;3733;47.994;8.820;2022-12-07T01:32:08;2.70;99.90
7384;DHT22;3733;47.994;8.820;2022-12-07T01:34:34;2.60;99.90
7384;DHT22;3733;47.994;8.820;2022-12-07T01:36:59;2.60;99.90
7384;DHT22;3733;47.994;8.820;2022-12-07T01:39:25;2.60;99.90
7384;DHT22;3733;47.994;8.820;2022-12-07T01:41:52;2.60;99.90
7384;DHT22;3733;47.994;8.820;2022-12-07T01:44:24;2.60;99.90
7384;DHT22;3733;47.994;8.820;2022-12-07T01:51:51;2.60;99.90
7384;DHT22;3733;47.994;8.820;2022-12-07T01:54:18;2.60;99.90
7384;DHT22;3733;47.994;8.820;2022-12-07T01:56:51;2.60;99.90
7384;DHT22;3733;47.994;8.820;2022-12-07T01:59:18;2.60;99.90
7384;DHT22;3733;47.994;8.820;2022-12-07T02:01:46;2.70;99.90
7384;DHT22;3733;47.994;8.820;2022-12-07T02:04:12;2.70;99.90
7384;DHT22;3733;47.994;8.820;2022-12-07T02:06:38;2.70;99.90
7384;DHT22;3733;47.994;8.820;2022-12-07T02:09:04;2.70;99.90
7384;DHT22;3733;47.994;8.820;2022-12-07T02:11:31;2.70;99.90
7384;DHT22;3733;47.994;8.820;2022-12-07T02:13:56;2.70;99.90
7384;DHT22;3733;47.994;8.820;2022-12-07T02:19:23;2.70;99.90
7384;DHT22;3733;47.994;8.820;2022-12-07T02:22:11;2.70;99.90
7384;DHT22;3733;47.994;8.820;2022-12-07T02:40:36;2.70;99.90
7384;DHT22;3733;47.994;8.820;2022-12-07T02:43:28;2.70;99.90
7384;DHT22;3733;47.994;8.820;2022-12-07T02:45:59;2.70;99.90
7384;DHT22;3733;47.994;8.820;2022-12-07T02:48:27;2.70;99.90
7384;DHT22;3733;47.994;8.820;2022-12-07T02:50:54;2.70;99.90
7384;DHT22;3733;47.994;8.820;2022-12-07T02:53:35;2.70;99.90
7384;DHT22;3733;47.994;8.820;2022-12-07T03:18:59;2.70;99.90
7384;DHT22;3733;47.994;8.820;2022-12-07T03:21:28;2.70;99.90
7384;DHT22;3733;47.994;8.820;2022-12-07T03:23:59;2.60;99.90
7384;DHT22;3733;47.994;8.820;2022-12-07T03:26:32;2.60;99.90
7384;DHT22;3733;47.994;8.820;2022-12-07T03:29:02;2.60;99.90
7384;DHT22;3733;47.994;8.820;2022-12-07T03:31:37;2.60;99.90
7384;DHT22;3733;47.994;8.820;2022-12-07T03:34:12;2.60;99.90
7384;DHT22;3733;47.994;8.820;2022-12-07T03:36:48;2.60;99.90
7384;DHT22;3733;47.994;8.820;2022-12-07T03:39:35;2.60;99.90
7384;DHT22;3733;47.994;8.820;2022-12-07T03:42:04;2.60;99.90
7384;DHT22;3733;47.994;8.820;2022-12-07T03:44:32;2.50;99.90
7384;DHT22;3733;47.994;8.820;2022-12-07T03:47:12;2.50;99.90
7384;DHT22;3733;47.994;8.820;2022-12-07T03:55:35;2.50;99.90
7384;DHT22;3733;47.994;8.820;2022-12-07T03:58:06;2.50;99.90
7384;DHT22;3733;47.994;8.820;2022-12-07T04:00:33;2.50;99.90
7384;DHT22;3733;47.994;8.820;2022-12-07T04:03:00;2.50;99.90
7384;DHT22;3733;47.994;8.820;2022-12-07T04:05:26;2.50;99.90
7384;DHT22;3733;47.994;8.820;2022-12-07T04:07:51;2.50;99.90
7384;DHT22;3733;47.994;8.820;2022-12-07T04:10:17;2.50;99.90
7384;DHT22;3733;47.994;8.820;2022-12-07T04:12:43;2.40;99.90
7384;DHT22;3733;47.994;8.820;2022-12-07T04:15:09;2.40;99.90
7384;DHT22;3733;47.994;8.820;2022-12-07T04:17:35;2.40;99.90
7384;DHT22;3733;47.994;8.820;2022-12-07T04:20:02;2.40;99.90
7384;DHT22;3733;47.994;8.820;2022-12-07T04:22:29;2.40;99.90
7384;DHT22;3733;47.994;8.820;2022-12-07T04:24:54;2.40;99.90
7384;DHT22;3733;47.994;8.820;2022-12-07T04:27:20;2.40;99.90
7384;DHT22;3733;47.994;8.820;2022-12-07T04:29:46;2.40;99.90
7384;DHT22;3733;47.994;8.820;2022-12-07T04:32:11;2.40;99.90
7384;DHT22;3733;47.994;8.820;2022-12-07T04:34:37;2.40;99.90
7384;DHT22;3733;47.994;8.820;2022-12-07T04:37:02;2.40;99.90
7384;DHT22;3733;47.994;8.820;2022-12-07T04:39:30;2.40;99.90
7384;DHT22;3733;47.994;8.820;2022-12-07T04:41:57;2.40;99.90
7384;DHT22;3733;47.994;8.820;2022-12-07T04:44:24;2.40;99.90
7384;DHT22;3733;47.994;8.820;2022-12-07T04:46:50;2.40;99.90
7384;DHT22;3733;47.994;8.820;2022-12-07T04:49:16;2.40;99.90
7384;DHT22;3733;47.994;8.820;2022-12-07T04:51:43;2.40;99.90
7384;DHT22;3733;47.994;8.820;2022-12-07T04:54:09;2.40;99.90
7384;DHT22;3733;47.994;8.820;2022-12-07T04:56:35;2.40;99.90
7384;DHT22;3733;47.994;8.820;2022-12-07T04:59:01;2.40;99.90
7384;DHT22;3733;47.994;8.820;2022-12-07T05:01:27;2.40;99.90
7384;DHT22;3733;47.994;8.820;2022-12-07T05:03:53;2.40;99.90
7384;DHT22;3733;47.994;8.820;2022-12-07T05:06:19;2.40;99.90
7384;DHT22;3733;47.994;8.820;2022-12-07T05:08:44;2.40;99.90
7384;DHT22;3733;47.994;8.820;2022-12-07T05:11:10;2.40;99.90
7384;DHT22;3733;47.994;8.820;2022-12-07T05:13:59;2.40;99.90
7384;DHT22;3733;47.994;8.820;2022-12-07T05:16:25;2.40;99.90
7384;DHT22;3733;47.994;8.820;2022-12-07T05:18:51;2.40;99.90
7384;DHT22;3733;47.994;8.820;2022-12-07T05:21:16;2.40;99.90
7384;DHT22;3733;47.994;8.820;2022-12-07T05:23:42;2.40;99.90
7384;DHT22;3733;47.994;8.820;2022-12-07T05:26:07;2.40;99.90
7384;DHT22;3733;47.994;8.820;2022-12-07T05:28:33;2.40;99.90
7384;DHT22;3733;47.994;8.820;2022-12-07T05:30:58;2.40;99.90
7384;DHT22;3733;47.994;8.820;2022-12-07T05:33:24;2.40;99.90
7384;DHT22;3733;47.994;8.820;2022-12-07T05:35:50;2.30;99.90
7384;DHT22;3733;47.994;8.820;2022-12-07T05:38:15;2.30;99.90
7384;DHT22;3733;47.994;8.820;2022-12-07T05:40:41;2.30;99.90
7384;DHT22;3733;47.994;8.820;2022-12-07T05:43:06;2.30;99.90
7384;DHT22;3733;47.994;8.820;2022-12-07T05:45:32;2.30;99.90
7384;DHT22;3733;47.994;8.820;2022-12-07T05:47:58;2.30;99.90
7384;DHT22;3733;47.994;8.820;2022-12-07T05:50:23;2.20;99.90
7384;DHT22;3733;47.994;8.820;2022-12-07T05:52:49;2.20;99.90
7384;DHT22;3733;47.994;8.820;2022-12-07T05:55:15;2.30;99.90
7384;DHT22;3733;47.994;8.820;2022-12-07T05:57:40;2.30;99.90
7384;DHT22;3733;47.994;8.820;2022-12-07T06:00:26;2.20;99.90
7384;DHT22;3733;47.994;8.820;2022-12-07T06:02:51;2.20;99.90
7384;DHT22;3733;47.994;8.820;2022-12-07T06:05:17;2.20;99.90
7384;DHT22;3733;47.994;8.820;2022-12-07T06:07:43;2.20;99.90
7384;DHT22;3733;47.994;8.820;2022-12-07T06:10:08;2.20;99.90
7384;DHT22;3733;47.994;8.820;2022-12-07T06:12:34;2.20;99.90
7384;DHT22;3733;47.994;8.820;2022-12-07T06:15:00;2.20;99.90
7384;DHT22;3733;47.994;8.820;2022-12-07T06:17:26;2.20;99.90
7384;DHT22;3733;47.994;8.820;2022-12-07T06:19:51;2.30;99.90
7384;DHT22;3733;47.994;8.820;2022-12-07T06:22:17;2.20;99.90
7384;DHT22;3733;47.994;8.820;2022-12-07T06:24:43;2.30;99.90
7384;DHT22;3733;47.994;8.820;2022-12-07T06:27:09;2.30;99.90
7384;DHT22;3733;47.994;8.820;2022-12-07T06:29:35;2.20;99.90
7384;DHT22;3733;47.994;8.820;2022-12-07T06:32:01;2.20;99.90
7384;DHT22;3733;47.994;8.820;2022-12-07T06:34:26;2.20;99.90
7384;DHT22;3733;47.994;8.820;2022-12-07T06:36:53;2.20;99.90
7384;DHT22;3733;47.994;8.820;2022-12-07T06:39:22;2.20;99.90
7384;DHT22;3733;47.994;8.820;2022-12-07T06:41:49;2.10;99.90
7384;DHT22;3733;47.994;8.820;2022-12-07T06:44:15;2.10;99.90
7384;DHT22;3733;47.994;8.820;2022-12-07T06:46:40;2.10;99.90
7384;DHT22;3733;47.994;8.820;2022-12-07T06:49:06;2.10;99.90
7384;DHT22;3733;47.994;8.820;2022-12-07T06:51:33;2.10;99.90
7384;DHT22;3733;47.994;8.820;2022-12-07T06:54:02;2.10;99.90
7384;DHT22;3733;47.994;8.820;2022-12-07T06:56:28;2.10;99.90
7384;DHT22;3733;47.994;8.820;2022-12-07T06:58:54;2.10;99.90
7384;DHT22;3733;47.994;8.820;2022-12-07T07:01:19;2.00;99.90
7384;DHT22;3733;47.994;8.820;2022-12-07T07:03:47;2.00;99.90
7384;DHT22;3733;47.994;8.820;2022-12-07T07:06:13;2.00;99.90
7384;DHT22;3733;47.994;8.820;2022-12-07T07:08:39;2.00;99.90
7384;DHT22;3733;47.994;8.820;2022-12-07T07:11:06;2.00;99.90
7384;DHT22;3733;47.994;8.820;2022-12-07T07:13:32;2.00;99.90
7384;DHT22;3733;47.994;8.820;2022-12-07T07:15:58;2.00;99.90
7384;DHT22;3733;47.994;8.820;2022-12-07T07:18:24;2.00;99.90
7384;DHT22;3733;47.994;8.820;2022-12-07T07:20:51;2.00;99.90
7384;DHT22;3733;47.994;8.820;2022-12-07T07:23:17;2.00;99.90
7384;DHT22;3733;47.994;8.820;2022-12-07T07:25:42;2.00;99.90
7384;DHT22;3733;47.994;8.820;2022-12-07T07:28:09;2.00;99.90
7384;DHT22;3733;47.994;8.820;2022-12-07T07:30:34;2.00;99.90
7384;DHT22;3733;47.994;8.820;2022-12-07T07:33:01;2.00;99.90
7384;DHT22;3733;47.994;8.820;2022-12-07T07:35:29;2.00;99.90
7384;DHT22;3733;47.994;8.820;2022-12-07T07:37:55;2.00;99.90
7384;DHT22;3733;47.994;8.820;2022-12-07T07:40:21;2.10;99.90
7384;DHT22;3733;47.994;8.820;2022-12-07T07:42:48;2.10;99.90
7384;DHT22;3733;47.994;8.820;2022-12-07T07:45:14;2.10;99.90
7384;DHT22;3733;47.994;8.820;2022-12-07T07:47:39;2.00;99.90
7384;DHT22;3733;47.994;8.820;2022-12-07T07:50:06;2.00;99.90
7384;DHT22;3733;47.994;8.820;2022-12-07T07:52:31;2.10;99.90
7384;DHT22;3733;47.994;8.820;2022-12-07T07:54:57;2.00;99.90
7384;DHT22;3733;47.994;8.820;2022-12-07T07:57:22;2.00;99.90
7384;DHT22;3733;47.994;8.820;2022-12-07T07:59:48;2.00;99.90
7384;DHT22;3733;47.994;8.820;2022-12-07T08:02:17;2.00;99.90
7384;DHT22;3733;47.994;8.820;2022-12-07T08:04:43;2.00;99.90
7384;DHT22;3733;47.994;8.820;2022-12-07T08:07:09;2.00;99.90
7384;DHT22;3733;47.994;8.820;2022-12-07T08:09:35;2.00;99.90
7384;DHT22;3733;47.994;8.820;2022-12-07T08:12:01;2.00;99.90
7384;DHT22;3733;47.994;8.820;2022-12-07T08:14:27;2.00;99.90
7384;DHT22;3733;47.994;8.820;2022-12-07T08:16:54;2.00;99.90
7384;DHT22;3733;47.994;8.820;2022-12-07T08:19:19;2.00;99.90
7384;DHT22;3733;47.994;8.820;2022-12-07T08:21:45;2.00;99.90
7384;DHT22;3733;47.994;8.820;2022-12-07T08:24:11;2.00;99.90
7384;DHT22;3733;47.994;8.820;2022-12-07T08:26:37;1.90;99.90
7384;DHT22;3733;47.994;8.820;2022-12-07T08:29:02;2.00;99.90
7384;DHT22;3733;47.994;8.820;2022-12-07T08:31:28;2.00;99.90
7384;DHT22;3733;47.994;8.820;2022-12-07T08:33:55;2.00;99.90
7384;DHT22;3733;47.994;8.820;2022-12-07T08:36:20;2.00;99.90
7384;DHT22;3733;47.994;8.820;2022-12-07T08:38:48;2.00;99.90
7384;DHT22;3733;47.994;8.820;2022-12-07T08:41:13;2.00;99.90
7384;DHT22;3733;47.994;8.820;2022-12-07T08:43:39;2.00;99.90
7384;DHT22;3733;47.994;8.820;2022-12-07T08:46:09;2.10;99.90
7384;DHT22;3733;47.994;8.820;2022-12-07T08:48:42;2.10;99.90
7384;DHT22;3733;47.994;8.820;2022-12-07T08:51:09;2.10;99.90
7384;DHT22;3733;47.994;8.820;2022-12-07T08:53:35;2.20;99.90
7384;DHT22;3733;47.994;8.820;2022-12-07T08:56:02;2.20;99.90
7384;DHT22;3733;47.994;8.820;2022-12-07T08:58:27;2.20;99.90
7384;DHT22;3733;47.994;8.820;2022-12-07T09:00:53;2.30;99.90
7384;DHT22;3733;47.994;8.820;2022-12-07T09:03:19;2.30;99.90
7384;DHT22;3733;47.994;8.820;2022-12-07T09:05:44;2.30;99.90
7384;DHT22;3733;47.994;8.820;2022-12-07T09:08:10;2.40;99.90
7384;DHT22;3733;47.994;8.820;2022-12-07T09:10:36;2.50;99.90
7384;DHT22;3733;47.994;8.820;2022-12-07T09:13:01;2.50;99.90
7384;DHT22;3733;47.994;8.820;2022-12-07T09:15:28;2.60;99.90
7384;DHT22;3733;47.994;8.820;2022-12-07T09:17:54;2.50;99.90
7384;DHT22;3733;47.994;8.820;2022-12-07T09:20:20;2.50;99.90
7384;DHT22;3733;47.994;8.820;2022-12-07T09:22:45;2.60;99.90
7384;DHT22;3733;47.994;8.820;2022-12-07T09:25:11;2.60;99.90
7384;DHT22;3733;47.994;8.820;2022-12-07T09:27:37;2.60;99.90
7384;DHT22;3733;47.994;8.820;2022-12-07T09:30:03;2.70;99.90
7384;DHT22;3733;47.994;8.820;2022-12-07T09:32:29;2.70;99.90
7384;DHT22;3733;47.994;8.820;2022-12-07T09:34:55;2.70;99.90
7384;DHT22;3733;47.994;8.820;2022-12-07T09:37:20;2.70;99.90
7384;DHT22;3733;47.994;8.820;2022-12-07T09:39:46;2.80;99.90
7384;DHT22;3733;47.994;8.820;2022-12-07T09:42:29;2.90;99.90
7384;DHT22;3733;47.994;8.820;2022-12-07T09:44:58;3.00;99.90
7384;DHT22;3733;47.994;8.820;2022-12-07T09:47:24;3.10;99.90
7384;DHT22;3733;47.994;8.820;2022-12-07T09:49:50;3.10;99.90
7384;DHT22;3733;47.994;8.820;2022-12-07T09:52:27;3.10;99.90
7384;DHT22;3733;47.994;8.820;2022-12-07T09:54:53;3.00;99.90
7384;DHT22;3733;47.994;8.820;2022-12-07T09:57:30;3.00;99.90
7384;DHT22;3733;47.994;8.820;2022-12-07T10:00:01;3.00;99.90
7384;DHT22;3733;47.994;8.820;2022-12-07T10:02:37;3.00;99.90
7384;DHT22;3733;47.994;8.820;2022-12-07T10:05:06;3.00;99.90
7384;DHT22;3733;47.994;8.820;2022-12-07T10:07:32;3.10;99.90
7384;DHT22;3733;47.994;8.820;2022-12-07T10:09:57;3.00;99.90
7384;DHT22;3733;47.994;8.820;2022-12-07T10:12:23;3.00;99.90
7384;DHT22;3733;47.994;8.820;2022-12-07T10:15:00;3.10;99.90
7384;DHT22;3733;47.994;8.820;2022-12-07T10:17:39;3.10;99.90
7384;DHT22;3733;47.994;8.820;2022-12-07T10:22:37;3.10;99.90
7384;DHT22;3733;47.994;8.820;2022-12-07T10:25:18;3.20;99.90
7384;DHT22;3733;47.994;8.820;2022-12-07T10:28:13;3.20;99.90
7384;DHT22;3733;47.994;8.820;2022-12-07T10:31:00;3.30;99.90
7384;DHT22;3733;47.994;8.820;2022-12-07T10:39:01;3.30;99.90
7384;DHT22;3733;47.994;8.820;2022-12-07T10:41:27;3.30;99.90
7384;DHT22;3733;47.994;8.820;2022-12-07T10:43:55;3.40;99.90
7384;DHT22;3733;47.994;8.820;2022-12-07T11:00:18;3.70;99.90
7384;DHT22;3733;47.994;8.820;2022-12-07T11:05:49;3.80;99.90
7384;DHT22;3733;47.994;8.820;2022-12-07T11:08:50;3.80;99.90
7384;DHT22;3733;47.994;8.820;2022-12-07T11:16:59;3.90;99.90
7384;DHT22;3733;47.994;8.820;2022-12-07T11:19:50;3.90;99.20
7384;DHT22;3733;47.994;8.820;2022-12-07T11:22:51;4.00;96.50
7384;DHT22;3733;47.994;8.820;2022-12-07T11:25:52;4.00;96.80
7384;DHT22;3733;47.994;8.820;2022-12-07T11:38:57;4.10;94.30
7384;DHT22;3733;47.994;8.820;2022-12-07T11:41:39;4.10;94.00
7384;DHT22;3733;47.994;8.820;2022-12-07T11:44:08;4.10;95.30
7384;DHT22;3733;47.994;8.820;2022-12-07T11:47:01;4.20;93.80
7384;DHT22;3733;47.994;8.820;2022-12-07T11:52:05;4.20;90.00
7384;DHT22;3733;47.994;8.820;2022-12-07T11:54:40;4.20;88.00
7384;DHT22;3733;47.994;8.820;2022-12-07T11:57:24;4.20;91.00
7384;DHT22;3733;47.994;8.820;2022-12-07T12:00:00;4.30;87.40
7384;DHT22;3733;47.994;8.820;2022-12-07T12:02:37;4.20;89.40
7384;DHT22;3733;47.994;8.820;2022-12-07T12:05:17;4.20;90.50
7384;DHT22;3733;47.994;8.820;2022-12-07T12:07:45;4.20;90.50
7384;DHT22;3733;47.994;8.820;2022-12-07T12:10:35;4.10;89.50
7384;DHT22;3733;47.994;8.820;2022-12-07T12:13:31;4.00;88.60
7384;DHT22;3733;47.994;8.820;2022-12-07T12:21:17;3.90;91.60
7384;DHT22;3733;47.994;8.820;2022-12-07T12:26:26;3.90;91.90
7384;DHT22;3733;47.994;8.820;2022-12-07T12:28:56;4.00;91.80
7384;DHT22;3733;47.994;8.820;2022-12-07T12:33:58;4.00;90.60
7384;DHT22;3733;47.994;8.820;2022-12-07T12:51:46;4.10;91.20
7384;DHT22;3733;47.994;8.820;2022-12-07T12:54:25;4.10;92.80
7384;DHT22;3733;47.994;8.820;2022-12-07T12:57:13;4.10;93.10
7384;DHT22;3733;47.994;8.820;2022-12-07T12:59:55;4.10;93.60
7384;DHT22;3733;47.994;8.820;2022-12-07T13:15:54;4.00;96.10
7384;DHT22;3733;47.994;8.820;2022-12-07T13:21:39;3.90;97.10
7384;DHT22;3733;47.994;8.820;2022-12-07T13:29:18;3.90;99.00
7384;DHT22;3733;47.994;8.820;2022-12-07T13:31:49;3.90;99.20
7384;DHT22;3733;47.994;8.820;2022-12-07T13:37:28;3.90;99.70
7384;DHT22;3733;47.994;8.820;2022-12-07T13:39:58;4.00;99.70
7384;DHT22;3733;47.994;8.820;2022-12-07T13:44:52;3.90;99.10
7384;DHT22;3733;47.994;8.820;2022-12-07T13:47:32;3.90;99.40
7384;DHT22;3733;47.994;8.820;2022-12-07T13:50:00;3.80;99.30
7384;DHT22;3733;47.994;8.820;2022-12-07T13:52:28;3.80;99.00
7384;DHT22;3733;47.994;8.820;2022-12-07T13:57:24;3.70;99.20
7384;DHT22;3733;47.994;8.820;2022-12-07T13:59:50;3.70;98.90
7384;DHT22;3733;47.994;8.820;2022-12-07T14:02:30;3.60;99.40
7384;DHT22;3733;47.994;8.820;2022-12-07T14:07:52;3.60;99.90
7384;DHT22;3733;47.994;8.820;2022-12-07T14:10:35;3.70;99.90
7384;DHT22;3733;47.994;8.820;2022-12-07T14:13:03;3.70;99.90
7384;DHT22;3733;47.994;8.820;2022-12-07T14:15:31;3.70;99.90
7384;DHT22;3733;47.994;8.820;2022-12-07T14:17:58;3.80;99.90
7384;DHT22;3733;47.994;8.820;2022-12-07T14:20:37;3.80;99.90
7384;DHT22;3733;47.994;8.820;2022-12-07T14:23:04;3.80;99.60
7384;DHT22;3733;47.994;8.820;2022-12-07T14:25:47;3.80;98.80
7384;DHT22;3733;47.994;8.820;2022-12-07T14:28:34;3.90;98.70
7384;DHT22;3733;47.994;8.820;2022-12-07T14:31:01;3.80;98.50
7384;DHT22;3733;47.994;8.820;2022-12-07T14:33:27;3.80;98.50
7384;DHT22;3733;47.994;8.820;2022-12-07T14:35:53;3.80;99.00
7384;DHT22;3733;47.994;8.820;2022-12-07T14:38:24;3.80;99.60
7384;DHT22;3733;47.994;8.820;2022-12-07T14:40:51;3.80;99.80
7384;DHT22;3733;47.994;8.820;2022-12-07T14:43:18;3.80;99.90
7384;DHT22;3733;47.994;8.820;2022-12-07T14:45:44;3.70;99.90
7384;DHT22;3733;47.994;8.820;2022-12-07T14:48:14;3.70;99.80
7384;DHT22;3733;47.994;8.820;2022-12-07T14:50:50;3.70;99.90
7384;DHT22;3733;47.994;8.820;2022-12-07T14:53:27;3.80;99.90
7384;DHT22;3733;47.994;8.820;2022-12-07T14:55:54;3.80;99.90
7384;DHT22;3733;47.994;8.820;2022-12-07T14:58:20;3.80;99.90
7384;DHT22;3733;47.994;8.820;2022-12-07T15:00:46;3.80;99.90
7384;DHT22;3733;47.994;8.820;2022-12-07T15:03:13;3.70;99.90
7384;DHT22;3733;47.994;8.820;2022-12-07T15:05:40;3.70;99.90
7384;DHT22;3733;47.994;8.820;2022-12-07T15:08:07;3.70;99.90
7384;DHT22;3733;47.994;8.820;2022-12-07T15:10:33;3.60;99.50
7384;DHT22;3733;47.994;8.820;2022-12-07T15:13:01;3.60;99.90
7384;DHT22;3733;47.994;8.820;2022-12-07T15:15:47;3.50;99.90
7384;DHT22;3733;47.994;8.820;2022-12-07T15:18:12;3.50;99.90
7384;DHT22;3733;47.994;8.820;2022-12-07T15:20:38;3.50;99.90
7384;DHT22;3733;47.994;8.820;2022-12-07T15:23:04;3.40;99.90
7384;DHT22;3733;47.994;8.820;2022-12-07T15:25:30;3.40;99.90
7384;DHT22;3733;47.994;8.820;2022-12-07T15:27:56;3.40;99.90
7384;DHT22;3733;47.994;8.820;2022-12-07T15:30:21;3.30;99.90
7384;DHT22;3733;47.994;8.820;2022-12-07T15:32:50;3.30;99.90
7384;DHT22;3733;47.994;8.820;2022-12-07T15:35:16;3.20;99.90
7384;DHT22;3733;47.994;8.820;2022-12-07T15:37:42;3.20;99.90
7384;DHT22;3733;47.994;8.820;2022-12-07T15:40:08;3.20;99.90
7384;DHT22;3733;47.994;8.820;2022-12-07T15:42:35;3.10;99.90
7384;DHT22;3733;47.994;8.820;2022-12-07T15:45:01;3.10;99.90
7384;DHT22;3733;47.994;8.820;2022-12-07T15:47:41;3.10;99.90
7384;DHT22;3733;47.994;8.820;2022-12-07T15:50:10;3.10;99.90
7384;DHT22;3733;47.994;8.820;2022-12-07T15:52:37;3.10;99.90
7384;DHT22;3733;47.994;8.820;2022-12-07T15:55:03;3.10;99.90
7384;DHT22;3733;47.994;8.820;2022-12-07T15:57:33;3.10;99.90
7384;DHT22;3733;47.994;8.820;2022-12-07T15:59:59;3.10;99.90
7384;DHT22;3733;47.994;8.820;2022-12-07T16:02:25;3.10;99.90
7384;DHT22;3733;47.994;8.820;2022-12-07T16:04:51;3.10;99.90
7384;DHT22;3733;47.994;8.820;2022-12-07T16:07:17;3.00;99.90
7384;DHT22;3733;47.994;8.820;2022-12-07T16:09:44;3.00;99.90
7384;DHT22;3733;47.994;8.820;2022-12-07T16:12:11;3.00;99.90
7384;DHT22;3733;47.994;8.820;2022-12-07T16:14:38;3.00;99.90
7384;DHT22;3733;47.994;8.820;2022-12-07T16:17:04;3.00;99.90
7384;DHT22;3733;47.994;8.820;2022-12-07T16:19:31;3.00;99.90
7384;DHT22;3733;47.994;8.820;2022-12-07T16:21:57;3.00;99.90
7384;DHT22;3733;47.994;8.820;2022-12-07T16:24:22;3.00;99.90
7384;DHT22;3733;47.994;8.820;2022-12-07T16:26:49;2.90;99.90
7384;DHT22;3733;47.994;8.820;2022-12-07T16:29:15;2.90;99.90
7384;DHT22;3733;47.994;8.820;2022-12-07T16:31:41;2.90;99.90
7384;DHT22;3733;47.994;8.820;2022-12-07T16:34:07;2.90;99.90
7384;DHT22;3733;47.994;8.820;2022-12-07T16:36:32;2.90;99.90
7384;DHT22;3733;47.994;8.820;2022-12-07T16:38:59;2.90;99.90
7384;DHT22;3733;47.994;8.820;2022-12-07T16:41:25;2.90;99.90
7384;DHT22;3733;47.994;8.820;2022-12-07T16:43:51;2.90;99.90
7384;DHT22;3733;47.994;8.820;2022-12-07T16:46:17;2.90;99.90
7384;DHT22;3733;47.994;8.820;2022-12-07T16:48:43;2.90;99.90
7384;DHT22;3733;47.994;8.820;2022-12-07T16:51:10;2.80;99.90
7384;DHT22;3733;47.994;8.820;2022-12-07T16:53:38;2.80;99.90
7384;DHT22;3733;47.994;8.820;2022-12-07T16:56:05;2.80;99.90
7384;DHT22;3733;47.994;8.820;2022-12-07T16:58:34;2.70;99.90
7384;DHT22;3733;47.994;8.820;2022-12-07T17:03:36;2.70;99.90
7384;DHT22;3733;47.994;8.820;2022-12-07T17:06:02;2.70;99.90
7384;DHT22;3733;47.994;8.820;2022-12-07T17:08:28;2.70;99.90
7384;DHT22;3733;47.994;8.820;2022-12-07T17:10:53;2.70;99.90
7384;DHT22;3733;47.994;8.820;2022-12-07T17:13:19;2.70;99.90
7384;DHT22;3733;47.994;8.820;2022-12-07T17:16:05;2.70;99.90
7384;DHT22;3733;47.994;8.820;2022-12-07T17:18:33;2.70;99.90
7384;DHT22;3733;47.994;8.820;2022-12-07T17:21:04;2.70;99.90
7384;DHT22;3733;47.994;8.820;2022-12-07T17:23:31;2.60;99.90
7384;DHT22;3733;47.994;8.820;2022-12-07T17:26:06;2.60;99.90
7384;DHT22;3733;47.994;8.820;2022-12-07T17:28:33;2.60;99.90
7384;DHT22;3733;47.994;8.820;2022-12-07T17:30:59;2.60;99.90
7384;DHT22;3733;47.994;8.820;2022-12-07T17:33:25;2.50;99.90
7384;DHT22;3733;47.994;8.820;2022-12-07T17:35:50;2.60;99.90
7384;DHT22;3733;47.994;8.820;2022-12-07T17:38:16;2.50;99.90
7384;DHT22;3733;47.994;8.820;2022-12-07T17:40:41;2.50;99.90
7384;DHT22;3733;47.994;8.820;2022-12-07T17:43:07;2.50;99.90
7384;DHT22;3733;47.994;8.820;2022-12-07T17:45:33;2.50;99.90
7384;DHT22;3733;47.994;8.820;2022-12-07T17:48:01;2.40;99.90
7384;DHT22;3733;47.994;8.820;2022-12-07T17:50:26;2.40;99.90
7384;DHT22;3733;47.994;8.820;2022-12-07T17:53:11;2.40;99.90
7384;DHT22;3733;47.994;8.820;2022-12-07T17:55:37;2.40;99.90
7384;DHT22;3733;47.994;8.820;2022-12-07T17:58:04;2.30;99.90
7384;DHT22;3733;47.994;8.820;2022-12-07T18:00:31;2.30;99.90
7384;DHT22;3733;47.994;8.820;2022-12-07T18:03:05;2.30;99.90
7384;DHT22;3733;47.994;8.820;2022-12-07T18:05:34;2.20;99.90
7384;DHT22;3733;47.994;8.820;2022-12-07T18:07:59;2.20;99.90
7384;DHT22;3733;47.994;8.820;2022-12-07T18:10:25;2.20;99.90
7384;DHT22;3733;47.994;8.820;2022-12-07T18:12:51;2.20;99.90
7384;DHT22;3733;47.994;8.820;2022-12-07T18:15:36;2.10;99.90
7384;DHT22;3733;47.994;8.820;2022-12-07T18:18:02;2.10;99.90
7384;DHT22;3733;47.994;8.820;2022-12-07T18:20:28;2.10;99.90
7384;DHT22;3733;47.994;8.820;2022-12-07T18:22:53;2.10;99.90
7384;DHT22;3733;47.994;8.820;2022-12-07T18:25:19;2.10;99.90
7384;DHT22;3733;47.994;8.820;2022-12-07T18:27:45;2.10;99.90
7384;DHT22;3733;47.994;8.820;2022-12-07T18:30:10;2.00;99.90
7384;DHT22;3733;47.994;8.820;2022-12-07T18:32:36;2.00;99.90
7384;DHT22;3733;47.994;8.820;2022-12-07T18:35:02;2.00;99.90
7384;DHT22;3733;47.994;8.820;2022-12-07T18:37:28;2.00;99.90
7384;DHT22;3733;47.994;8.820;2022-12-07T18:39:53;2.00;99.90
7384;DHT22;3733;47.994;8.820;2022-12-07T18:42:20;2.00;99.90
7384;DHT22;3733;47.994;8.820;2022-12-07T18:44:45;2.00;99.90
7384;DHT22;3733;47.994;8.820;2022-12-07T18:47:11;2.00;99.90
7384;DHT22;3733;47.994;8.820;2022-12-07T18:49:37;2.00;99.90
7384;DHT22;3733;47.994;8.820;2022-12-07T18:52:03;1.90;99.90
7384;DHT22;3733;47.994;8.820;2022-12-07T18:54:29;1.90;99.90
7384;DHT22;3733;47.994;8.820;2022-12-07T18:56:54;1.90;99.90
7384;DHT22;3733;47.994;8.820;2022-12-07T18:59:21;1.80;99.90
7384;DHT22;3733;47.994;8.820;2022-12-07T19:02:06;1.80;99.90
7384;DHT22;3733;47.994;8.820;2022-12-07T19:04:32;1.80;99.90
7384;DHT22;3733;47.994;8.820;2022-12-07T19:06:57;1.80;99.90